Friday, October 31, 2014, 3:34 PM CDT
Back to Local

KHDC, Hammond, Hammond Municipal Airport

Location: Hammond, LA, United States Lat: 30.521
Local Time: 3:34 PM CDT (20:34 GMT) Lon: -90.418
Time Zone: US/Central Elev: 42 ft

Show me the last for .
Show Coded

Time T Td Feel RH Dir Speed Gust Alt SLP Vis Weather Sky Remarks
2014-10-31 15:15 75 41 - 29 320° 14 20 30.03 - 10 CLR None
2014-10-31 14:55 75 41 - 29 320° 20 25 30.03 - 10 CLR None
2014-10-31 14:35 75 39 - 27 330° 14 22 30.02 - 10 CLR None
2014-10-31 14:15 75 39 - 27 330° 14 20 30.03 - 10 CLR None
2014-10-31 13:55 75 39 - 27 330° 12 22 30.03 - 10 CLR None
2014-10-31 13:35 75 39 - 27 330° 16 23 30.03 - 10 CLR None
2014-10-31 13:15 75 39 - 27 330° 16 22 30.04 - 10 CLR None
2014-10-31 12:55 75 39 - 27 320° 14 24 30.05 - 10 CLR None
2014-10-31 12:35 75 41 - 29 340° 16 21 30.05 - 10 CLR None
2014-10-31 12:15 73 41 - 31 350° 15 24 30.06 - 10 CLR None
2014-10-31 11:55 73 43 - 33 330° 12 20 30.07 - 10 CLR None
2014-10-31 11:35 73 43 - 33 340° 12 16 30.07 - 10 CLR None
2014-10-31 11:15 72 45 - 37 340° 14 17 30.07 - 10 CLR None
2014-10-31 10:55 72 45 - 37 330° 8 17 30.07 - 10 CLR None
2014-10-31 10:35 70 46 - 43 320° 7 - 30.07 - 10 CLR None
2014-10-31 10:15 66 46 - 48 310° 8 - 30.08 - 10 CLR None
2014-10-31 09:55 66 46 - 48 330° 8 - 30.08 - 10 CLR None
2014-10-31 09:35 63 46 - 55 310° 9 - 30.08 - 10 CLR None
2014-10-31 09:15 61 48 - 63 300° 8 - 30.08 - 10 CLR None
2014-10-31 08:55 57 48 - 71 310° 3 - 30.08 - 10 CLR None
2014-10-31 08:35 54 46 - 76 320° 3 - 30.08 - 10 CLR None
2014-10-31 08:15 50 46 - 87 - Calm - 30.08 - 10 CLR None
2014-10-31 07:55 48 45 - 87 - Calm - 30.07 - 10 CLR None
2014-10-31 07:35 46 43 - 87 - Calm - 30.07 - 10 CLR None
2014-10-31 07:15 45 43 - 93 - Calm - 30.06 - 10 CLR None
2014-10-31 06:55 45 43 - 93 - Calm - 30.06 - 10 CLR None
2014-10-31 06:35 45 41 - 87 - Calm - 30.06 - 10 CLR None
2014-10-31 06:15 45 43 - 93 - Calm - 30.05 - 10 CLR None
2014-10-31 05:55 45 43 - 93 - Calm - 30.05 - 10 CLR None
2014-10-31 05:35 46 43 - 87 - Calm - 30.05 - 10 CLR None
2014-10-31 05:15 46 43 - 87 - Calm - 30.04 - 10 CLR None
2014-10-31 04:55 46 43 - 87 - Calm - 30.05 - 10 CLR None
2014-10-31 04:35 46 43 - 87 - Calm - 30.05 - 10 CLR None
2014-10-31 04:15 48 43 - 81 - Calm - 30.05 - 10 CLR None
2014-10-31 03:55 46 43 - 87 - Calm - 30.05 - 10 CLR None
2014-10-31 03:35 48 45 - 87 - Calm - 30.05 - 10 CLR None
2014-10-31 03:15 48 45 - 87 - Calm - 30.06 - 10 CLR None
2014-10-31 02:55 48 45 - 87 - Calm - 30.06 - 10 CLR None
2014-10-31 02:35 48 45 - 87 - Calm - 30.07 - 10 CLR None
2014-10-31 02:15 50 45 - 81 - Calm - 30.07 - 10 CLR None
2014-10-31 01:55 50 46 - 87 - Calm - 30.08 - 10 CLR None
2014-10-31 01:35 48 45 - 87 - Calm - 30.08 - 10 CLR None
2014-10-31 00:55 48 45 - 87 - Calm - 30.07 - 10 CLR None
2014-10-31 00:35 50 45 - 81 - Calm - 30.07 - 10 CLR None
2014-10-31 00:15 48 45 - 87 - Calm - 30.08 - 10 CLR None
2014-10-30 23:55 50 45 - 81 - Calm - 30.08 - 10 CLR None
2014-10-30 23:35 50 46 - 87 - Calm - 30.07 - 10 CLR None
2014-10-30 23:15 50 45 - 81 - Calm - 30.08 - 10 CLR None
2014-10-30 22:55 50 46 - 87 - Calm - 30.08 - 10 CLR None
2014-10-30 22:35 50 46 - 87 - Calm - 30.08 - 10 CLR None
2014-10-30 22:15 52 46 - 81 - Calm - 30.07 - 10 CLR None
2014-10-30 21:55 52 46 - 81 - Calm - 30.07 - 10 CLR None
2014-10-30 21:35 52 46 - 81 - Calm - 30.07 - 10 CLR None
2014-10-30 21:15 52 46 - 81 - Calm - 30.07 - 10 CLR None
2014-10-30 20:35 55 46 - 71 - Calm - 30.07 - 10 CLR None
2014-10-30 20:15 55 48 - 76 - Calm - 30.07 - 10 CLR None
2014-10-30 19:55 55 46 - 71 - Calm - 30.07 - 10 CLR None
2014-10-30 19:35 57 46 - 67 - Calm - 30.06 - 10 CLR None
2014-10-30 19:15 57 46 - 67 - Calm - 30.05 - 10 CLR None
2014-10-30 18:55 63 46 - 55 - Calm - 30.05 - 10 CLR None
2014-10-30 18:35 64 45 - 48 - Calm - 30.05 - 10 CLR None
2014-10-30 18:15 66 41 - 39 - Calm - 30.06 - 10 CLR None
2014-10-30 17:55 70 41 - 35 - Calm - 30.05 - 10 CLR None
2014-10-30 17:35 72 37 - 28 320° 3 - 30.05 - 10 CLR None
2014-10-30 17:15 73 36 - 25 340° 6 - 30.05 - 10 CLR None
2014-10-30 16:55 75 34 - 22 10° 3 - 30.04 - 10 CLR None
2014-10-30 16:35 75 34 - 22 340° 5 - 30.04 - 10 CLR None
2014-10-30 16:15 77 34 - 20 350° 7 - 30.05 - 10 CLR None
2014-10-30 15:55 75 32 - 20 10° 6 - 30.05 - 10 CLR None
2014-10-30 15:35 77 34 - 20 350° 8 - 30.05 - 10 CLR None

Support USWX by starting your Amazon purchase here.